Time;durP1;ratioP1;P1;durP2;ratioP2;P2;SDS_P1;SDS_P2;PMS_P1;PMS_P2;Temp;Humidity;BMP_temperature;BMP_pressure;BME280_temperature;BME280_humidity;BME280_pressure;Samples;Min_cycle;Max_cycle;Signal;HPM_P1;HPM_P2
2022/01/28 00:01:50;;;;;;;3.07;0.40;;;5.40;99.90;;;;;;5072893;28;20199;-79
2022/01/28 00:04:17;;;;;;;1.00;0.37;;;5.50;99.90;;;;;;5071692;28;20195;-80
2022/01/28 00:06:42;;;;;;;0.20;0.20;;;5.50;99.90;;;;;;5071650;28;20632;-79
2022/01/28 00:09:08;;;;;;;0.63;0.40;;;5.50;99.90;;;;;;5073276;28;20205;-80
2022/01/28 00:11:34;;;;;;;0.10;0.10;;;5.60;99.90;;;;;;5087341;28;20208;-80
2022/01/28 00:14:17;;;;;;;1.60;1.47;;;5.60;99.90;;;;;;5089752;28;20222;-79
2022/01/28 00:20:21;;;;;;;0.23;0.23;;;5.60;99.90;;;;;;5087502;28;20194;-79
2022/01/28 00:38:49;;;;;;;0.63;0.30;;;5.60;99.90;;;;;;5066730;28;20181;-80
2022/01/28 00:41:15;;;;;;;0.90;0.27;;;5.50;99.90;;;;;;5065620;28;20197;-80
2022/01/28 00:43:41;;;;;;;0.53;0.53;;;5.50;99.90;;;;;;5064278;28;20594;-80
2022/01/28 00:46:07;;;;;;;0.13;0.13;;;5.50;99.90;;;;;;5064909;28;20181;-81
2022/01/28 00:48:33;;;;;;;1.00;0.30;;;5.60;99.90;;;;;;5066187;28;20249;-80
2022/01/28 00:50:59;;;;;;;0.10;0.10;;;5.60;99.90;;;;;;5065783;28;20757;-81
2022/01/28 00:53:24;;;;;;;0.27;0.27;;;5.60;99.90;;;;;;5065824;28;20642;-81
2022/01/28 00:55:50;;;;;;;5.50;0.27;;;5.60;99.90;;;;;;5066180;28;20319;-80
2022/01/28 00:58:16;;;;;;;0.20;0.20;;;5.60;99.90;;;;;;5066107;28;20185;-81
2022/01/28 01:00:41;;;;;;;0.10;0.10;;;5.60;99.90;;;;;;5066313;28;20205;-80
2022/01/28 01:03:07;;;;;;;0.30;0.30;;;5.70;99.90;;;;;;5067712;28;20192;-79
2022/01/28 01:05:34;;;;;;;0.20;0.20;;;5.70;99.90;;;;;;5065232;28;20188;-80
2022/01/28 01:08:04;;;;;;;0.17;0.17;;;5.70;99.90;;;;;;5073743;28;20208;-80
2022/01/28 01:10:30;;;;;;;0.40;0.33;;;5.70;99.90;;;;;;5066494;28;20227;-80
2022/01/28 01:12:56;;;;;;;0.10;0.10;;;5.70;99.90;;;;;;5065492;28;20173;-80
2022/01/28 01:15:26;;;;;;;0.03;0.03;;;5.80;99.90;;;;;;5064468;28;20192;-80
2022/01/28 01:22:53;;;;;;;0.10;0.10;;;5.80;99.90;;;;;;5066957;28;20177;-79
2022/01/28 01:25:25;;;;;;;0.17;0.17;;;5.70;99.90;;;;;;5064636;28;20188;-79
2022/01/28 01:27:55;;;;;;;0.10;0.10;;;5.70;99.90;;;;;;5065902;28;20252;-79
2022/01/28 01:30:21;;;;;;;0.10;0.10;;;5.80;99.90;;;;;;5064327;28;20208;-80
2022/01/28 01:32:47;;;;;;;0.10;0.10;;;5.90;99.90;;;;;;5063268;28;20176;-81
2022/01/28 01:35:12;;;;;;;0.10;0.10;;;5.90;99.90;;;;;;5065126;28;20691;-80
2022/01/28 01:37:38;;;;;;;0.20;0.20;;;5.90;99.90;;;;;;5061806;28;20181;-80
2022/01/28 01:40:04;;;;;;;0.40;0.40;;;5.90;99.90;;;;;;5065797;28;20288;-79
2022/01/28 01:42:49;;;;;;;0.10;0.10;;;6.00;99.90;;;;;;5063426;28;20276;-80
2022/01/28 01:53:29;;;;;;;0.10;0.10;;;6.20;99.90;;;;;;5064998;28;20184;-79
2022/01/28 01:55:56;;;;;;;0.10;0.10;;;6.20;99.90;;;;;;5065755;28;20812;-80
2022/01/28 01:58:30;;;;;;;0.10;0.10;;;6.10;99.90;;;;;;5064218;28;20185;-80
2022/01/28 02:00:57;;;;;;;0.03;0.03;;;6.00;99.90;;;;;;5065647;28;20215;-80
2022/01/28 02:03:22;;;;;;;1.63;0.30;;;5.80;99.90;;;;;;5065665;28;20189;-80
2022/01/28 02:05:48;;;;;;;0.10;0.10;;;5.70;99.90;;;;;;5065708;28;20186;-80
2022/01/28 02:08:14;;;;;;;0.10;0.10;;;5.50;99.90;;;;;;5064090;28;20184;-80
2022/01/28 02:10:39;;;;;;;0.00;0.00;;;5.40;99.90;;;;;;5063343;28;20205;-79
2022/01/28 02:13:05;;;;;;;0.10;0.10;;;5.40;99.90;;;;;;5062620;28;20201;-81
2022/01/28 02:15:31;;;;;;;0.10;0.10;;;5.40;99.90;;;;;;5063837;28;20257;-80
2022/01/28 02:17:59;;;;;;;0.83;0.83;;;5.40;99.90;;;;;;5062078;28;20179;-80
2022/01/28 02:20:32;;;;;;;0.20;0.20;;;5.40;99.90;;;;;;5064607;28;20226;-80
2022/01/28 02:22:57;;;;;;;0.10;0.10;;;5.40;99.90;;;;;;5064691;28;20700;-80
2022/01/28 02:25:28;;;;;;;0.30;0.30;;;5.40;99.90;;;;;;5064094;28;20217;-80
2022/01/28 02:27:57;;;;;;;0.10;0.10;;;5.50;99.90;;;;;;5064637;28;20215;-81
2022/01/28 02:30:23;;;;;;;0.10;0.10;;;5.50;99.90;;;;;;5064451;28;20220;-79
2022/01/28 02:32:50;;;;;;;0.10;0.10;;;5.60;99.90;;;;;;5064787;28;20600;-80
2022/01/28 02:35:16;;;;;;;0.10;0.10;;;5.60;99.90;;;;;;5063939;28;20223;-80
2022/01/28 02:37:42;;;;;;;0.10;0.10;;;5.70;99.90;;;;;;5064571;28;20180;-80
2022/01/28 02:40:08;;;;;;;0.10;0.10;;;5.70;99.90;;;;;;5063068;28;20201;-80
2022/01/28 02:42:51;;;;;;;0.10;0.10;;;5.70;99.90;;;;;;5065689;28;20212;-80
2022/01/28 02:45:26;;;;;;;0.10;0.10;;;5.70;99.90;;;;;;5064778;28;20242;-79
2022/01/28 02:47:57;;;;;;;0.10;0.10;;;5.80;99.90;;;;;;5063231;28;20625;-80
2022/01/28 02:50:25;;;;;;;0.10;0.10;;;5.90;99.90;;;;;;5063702;28;20220;-80
2022/01/28 02:53:02;;;;;;;7.77;0.53;;;5.90;99.90;;;;;;5064566;28;20596;-81
2022/01/28 02:55:30;;;;;;;0.10;0.10;;;6.00;99.90;;;;;;5064564;28;20278;-80
2022/01/28 02:58:14;;;;;;;0.10;0.10;;;6.00;99.90;;;;;;5063381;28;20275;-80
2022/01/28 03:00:40;;;;;;;0.10;0.10;;;5.90;99.90;;;;;;5065538;28;20703;-80
2022/01/28 03:03:06;;;;;;;0.17;0.17;;;5.80;99.90;;;;;;5069221;28;20179;-80
2022/01/28 03:05:34;;;;;;;0.10;0.10;;;5.80;99.90;;;;;;5069019;28;20650;-80
2022/01/28 03:08:03;;;;;;;0.10;0.10;;;5.70;99.90;;;;;;5068454;28;20183;-80
2022/01/28 03:10:41;;;;;;;0.10;0.10;;;5.70;99.90;;;;;;5068280;28;20208;-80
2022/01/28 03:13:27;;;;;;;1.03;0.77;;;5.60;99.90;;;;;;5068009;28;20165;-79
2022/01/28 03:15:55;;;;;;;0.20;0.20;;;5.70;99.90;;;;;;5076009;28;20225;-81
2022/01/28 03:18:29;;;;;;;0.50;0.50;;;5.70;99.90;;;;;;5067801;28;20179;-80
2022/01/28 03:20:59;;;;;;;0.10;0.10;;;5.70;99.90;;;;;;5067799;28;20197;-80
2022/01/28 03:23:25;;;;;;;0.00;0.00;;;5.60;99.90;;;;;;5067683;28;20184;-80
2022/01/28 03:25:50;;;;;;;0.20;0.20;;;5.70;99.90;;;;;;5067649;28;20181;-80
2022/01/28 03:28:19;;;;;;;0.10;0.10;;;5.70;99.90;;;;;;5068211;28;20277;-80
2022/01/28 03:30:45;;;;;;;0.10;0.10;;;5.70;99.90;;;;;;5068330;28;20796;-80
2022/01/28 03:33:10;;;;;;;0.20;0.20;;;5.70;99.90;;;;;;5069075;28;20261;-80
2022/01/28 03:35:36;;;;;;;0.73;0.60;;;5.70;99.90;;;;;;5066937;28;20569;-79
2022/01/28 03:38:06;;;;;;;0.20;0.10;;;5.60;99.90;;;;;;5068553;28;20184;-80
2022/01/28 03:40:36;;;;;;;0.00;0.00;;;5.60;99.90;;;;;;5068184;28;20212;-80
2022/01/28 03:43:03;;;;;;;0.33;0.33;;;5.60;99.90;;;;;;5067330;28;20221;-81
2022/01/28 03:45:28;;;;;;;0.17;0.17;;;5.50;99.90;;;;;;5067050;28;20184;-80
2022/01/28 03:47:54;;;;;;;0.30;0.13;;;5.60;99.90;;;;;;5075825;28;20584;-80
2022/01/28 03:50:20;;;;;;;1.50;1.10;;;5.60;99.90;;;;;;5066581;28;20215;-81
2022/01/28 03:52:45;;;;;;;0.93;0.93;;;5.50;99.90;;;;;;5067778;28;20183;-80
2022/01/28 03:55:11;;;;;;;0.10;0.10;;;5.50;99.90;;;;;;5067066;28;20188;-80
2022/01/28 03:57:37;;;;;;;0.10;0.10;;;5.50;99.90;;;;;;5067601;28;20181;-80
2022/01/28 04:00:04;;;;;;;0.10;0.10;;;5.50;99.90;;;;;;5067967;28;20216;-79
2022/01/28 04:02:33;;;;;;;0.60;0.60;;;5.40;99.90;;;;;;5065397;28;20177;-80
2022/01/28 04:12:55;;;;;;;0.10;0.10;;;5.30;99.90;;;;;;5067550;28;20541;-80
2022/01/28 04:15:49;;;;;;;0.17;0.10;;;5.30;99.90;;;;;;5075325;28;20185;-80
2022/01/28 04:18:15;;;;;;;0.27;0.27;;;5.30;99.90;;;;;;5067007;28;20593;-80
2022/01/28 04:20:40;;;;;;;0.03;0.03;;;5.30;99.90;;;;;;5066461;28;20249;-80
2022/01/28 04:23:06;;;;;;;0.10;0.10;;;5.40;99.90;;;;;;5066792;28;20189;-80
2022/01/28 04:25:31;;;;;;;0.70;0.70;;;5.30;99.90;;;;;;5067071;28;20225;-80
2022/01/28 04:27:57;;;;;;;2.03;1.90;;;5.30;99.90;;;;;;5067536;28;20228;-80
2022/01/28 04:30:22;;;;;;;0.60;0.60;;;5.30;99.90;;;;;;5067132;28;20375;-80
2022/01/28 04:32:50;;;;;;;0.10;0.10;;;5.30;99.90;;;;;;5067808;28;20180;-80
2022/01/28 04:35:16;;;;;;;0.10;0.10;;;5.30;99.90;;;;;;5067289;28;20188;-80
2022/01/28 04:45:27;;;;;;;1.40;0.40;;;5.30;99.90;;;;;;5069082;28;20234;-80
2022/01/28 04:55:48;;;;;;;0.10;0.10;;;5.30;99.90;;;;;;5067318;28;20685;-80
2022/01/28 04:58:43;;;;;;;1.17;0.20;;;5.30;99.90;;;;;;5064559;28;20232;-80
2022/01/28 05:04:05;;;;;;;0.33;0.30;;;5.30;99.90;;;;;;5068231;28;20186;-79
2022/01/28 05:07:04;;;;;;;0.10;0.10;;;5.30;99.90;;;;;;5067184;28;20199;-80
2022/01/28 05:23:42;;;;;;;2.53;1.03;;;5.40;99.90;;;;;;5055690;28;20218;-80
2022/01/28 05:28:49;;;;;;;1.60;0.67;;;5.40;99.90;;;;;;5061332;28;20226;-80
2022/01/28 05:31:16;;;;;;;3.30;1.80;;;5.40;99.90;;;;;;5065475;28;20228;-81
2022/01/28 05:33:42;;;;;;;0.10;0.10;;;5.40;99.90;;;;;;5064505;28;20208;-80
2022/01/28 05:36:08;;;;;;;0.00;0.00;;;5.40;99.90;;;;;;5065011;28;20228;-80
2022/01/28 05:38:33;;;;;;;0.10;0.10;;;5.40;99.90;;;;;;5067709;28;20184;-80
2022/01/28 05:40:59;;;;;;;0.10;0.10;;;5.30;99.90;;;;;;5063362;28;20257;-80
2022/01/28 05:43:24;;;;;;;0.10;0.10;;;5.30;99.90;;;;;;5066140;28;20192;-81
2022/01/28 05:45:50;;;;;;;0.53;0.53;;;5.30;99.90;;;;;;5060973;28;20284;-80
2022/01/28 05:48:17;;;;;;;0.10;0.10;;;5.30;99.90;;;;;;5062501;28;20291;-80
2022/01/28 05:50:42;;;;;;;0.10;0.10;;;5.30;99.90;;;;;;5061276;28;20207;-80
2022/01/28 05:53:08;;;;;;;0.20;0.20;;;5.30;99.90;;;;;;5066594;28;20181;-80
2022/01/28 05:55:35;;;;;;;0.10;0.10;;;5.20;99.90;;;;;;5063082;28;20265;-80
2022/01/28 05:58:00;;;;;;;0.10;0.10;;;5.00;99.90;;;;;;5065991;28;20180;-80
2022/01/28 06:00:26;;;;;;;0.10;0.10;;;5.20;99.90;;;;;;5065522;28;20747;-80
2022/01/28 06:02:52;;;;;;;0.53;0.37;;;5.10;99.90;;;;;;5067277;28;20173;-80
2022/01/28 06:05:18;;;;;;;0.10;0.10;;;5.20;99.90;;;;;;5064792;28;20196;-80
2022/01/28 06:07:43;;;;;;;0.10;0.10;;;5.10;99.90;;;;;;5065583;28;20605;-79
2022/01/28 06:10:11;;;;;;;0.17;0.17;;;5.10;99.90;;;;;;5067486;28;20209;-80
2022/01/28 06:12:44;;;;;;;0.10;0.10;;;5.10;99.90;;;;;;5066332;28;20177;-79
2022/01/28 06:15:11;;;;;;;0.10;0.10;;;5.10;99.90;;;;;;5068446;28;20175;-78
2022/01/28 06:17:37;;;;;;;0.20;0.20;;;5.00;99.90;;;;;;5067472;28;20236;-80
2022/01/28 06:20:05;;;;;;;0.20;0.20;;;5.00;99.90;;;;;;5062599;28;20692;-79
2022/01/28 06:22:31;;;;;;;0.77;0.77;;;5.10;99.90;;;;;;5058325;28;20186;-79
2022/01/28 06:24:57;;;;;;;0.17;0.17;;;5.10;99.90;;;;;;5063165;28;20184;-79
2022/01/28 06:27:22;;;;;;;0.10;0.10;;;5.10;99.90;;;;;;5064791;28;20207;-79
2022/01/28 06:29:49;;;;;;;0.20;0.20;;;5.10;99.90;;;;;;5058213;28;20569;-79
2022/01/28 06:32:16;;;;;;;0.10;0.10;;;5.10;99.90;;;;;;5055782;28;20606;-79
2022/01/28 06:34:42;;;;;;;0.30;0.30;;;5.00;99.90;;;;;;5056743;28;20181;-79
2022/01/28 06:37:08;;;;;;;0.20;0.20;;;5.00;99.90;;;;;;5061612;28;20263;-81
2022/01/28 06:39:33;;;;;;;0.67;0.67;;;5.00;99.90;;;;;;5062119;28;20272;-79
2022/01/28 06:42:00;;;;;;;0.00;0.00;;;5.00;99.90;;;;;;5061380;28;20217;-79
2022/01/28 06:44:25;;;;;;;0.10;0.10;;;4.90;99.90;;;;;;5062343;28;20684;-79
2022/01/28 06:46:52;;;;;;;0.10;0.10;;;4.90;99.90;;;;;;5063789;28;20520;-79
2022/01/28 06:49:18;;;;;;;0.10;0.10;;;4.90;99.90;;;;;;5063139;28;20240;-79
2022/01/28 06:51:43;;;;;;;0.63;0.23;;;4.90;99.90;;;;;;5061337;28;20239;-79
2022/01/28 06:54:09;;;;;;;0.50;0.30;;;4.90;99.90;;;;;;5064534;28;20650;-80
2022/01/28 06:56:34;;;;;;;0.10;0.10;;;4.90;99.90;;;;;;5065063;28;20530;-79
2022/01/28 06:59:00;;;;;;;0.10;0.10;;;4.90;99.90;;;;;;5067109;28;20198;-81
2022/01/28 07:01:26;;;;;;;0.37;0.37;;;4.80;99.90;;;;;;5064075;28;20211;-82
2022/01/28 07:03:51;;;;;;;0.10;0.10;;;4.80;99.90;;;;;;5066477;28;20187;-81
2022/01/28 07:06:18;;;;;;;2.87;0.97;;;4.80;99.90;;;;;;5063965;28;20891;-82
2022/01/28 07:08:44;;;;;;;0.77;0.77;;;4.80;99.90;;;;;;5062404;28;20327;-82
2022/01/28 07:11:09;;;;;;;2.43;0.20;;;4.70;99.90;;;;;;5061329;28;20298;-82
2022/01/28 07:13:35;;;;;;;0.30;0.30;;;4.70;99.90;;;;;;5057030;28;20674;-81
2022/01/28 07:16:01;;;;;;;0.10;0.10;;;4.70;99.90;;;;;;5060656;28;20231;-82
2022/01/28 07:18:26;;;;;;;0.10;0.10;;;4.70;99.90;;;;;;5057989;28;21232;-82
2022/01/28 07:20:52;;;;;;;0.20;0.20;;;4.80;99.90;;;;;;5061344;28;20278;-82
2022/01/28 07:23:17;;;;;;;0.10;0.10;;;4.80;99.90;;;;;;5061589;28;20193;-82
2022/01/28 07:25:43;;;;;;;0.10;0.10;;;4.90;99.90;;;;;;5061897;28;20207;-81
2022/01/28 07:28:08;;;;;;;0.10;0.10;;;4.80;99.90;;;;;;5053150;28;20192;-82
2022/01/28 07:30:34;;;;;;;0.30;0.30;;;4.80;99.90;;;;;;5050670;28;20205;-82
2022/01/28 07:33:01;;;;;;;0.80;0.40;;;4.90;99.90;;;;;;5055246;28;20189;-81
2022/01/28 07:35:26;;;;;;;0.20;0.20;;;4.90;99.90;;;;;;5059188;28;20196;-81
2022/01/28 07:37:52;;;;;;;0.20;0.20;;;5.10;99.90;;;;;;5059532;28;20186;-81
2022/01/28 07:40:18;;;;;;;0.10;0.10;;;5.30;99.90;;;;;;5049985;28;20717;-82
2022/01/28 07:42:43;;;;;;;0.10;0.10;;;5.40;99.90;;;;;;5058460;28;20185;-82
2022/01/28 07:45:13;;;;;;;0.10;0.10;;;5.50;99.90;;;;;;5061180;28;20191;-82
2022/01/28 07:47:39;;;;;;;0.10;0.10;;;5.60;99.90;;;;;;5057367;28;20605;-82
2022/01/28 07:50:07;;;;;;;0.10;0.10;;;5.70;99.90;;;;;;5060061;28;20220;-82
2022/01/28 07:52:33;;;;;;;0.10;0.10;;;5.70;99.90;;;;;;5063031;28;20748;-82
2022/01/28 07:54:58;;;;;;;0.30;0.30;;;5.80;99.90;;;;;;5057874;28;20217;-81
2022/01/28 07:57:24;;;;;;;0.10;0.10;;;5.90;99.90;;;;;;5063450;28;20184;-81
2022/01/28 07:59:49;;;;;;;0.10;0.10;;;5.90;99.90;;;;;;5055482;28;20305;-79
2022/01/28 08:02:15;;;;;;;0.43;0.10;;;6.00;99.90;;;;;;5058220;28;20194;-79
2022/01/28 08:04:41;;;;;;;0.30;0.20;;;6.00;99.90;;;;;;5062488;28;20185;-78
2022/01/28 08:07:06;;;;;;;0.27;0.27;;;6.10;99.90;;;;;;5057881;28;20186;-79
2022/01/28 08:09:32;;;;;;;0.13;0.13;;;6.10;99.90;;;;;;5056188;28;20208;-79
2022/01/28 08:11:58;;;;;;;0.10;0.10;;;6.10;99.90;;;;;;5059044;28;20215;-77
2022/01/28 08:14:24;;;;;;;0.10;0.10;;;6.10;99.90;;;;;;5055600;28;20270;-78
2022/01/28 08:16:49;;;;;;;0.10;0.10;;;6.20;99.90;;;;;;5058655;28;20440;-78
2022/01/28 08:19:15;;;;;;;0.10;0.10;;;6.10;99.90;;;;;;5062597;28;20189;-78
2022/01/28 08:21:41;;;;;;;0.10;0.10;;;6.10;99.90;;;;;;5060426;28;20211;-79
2022/01/28 08:24:06;;;;;;;0.10;0.10;;;6.10;99.90;;;;;;5061517;28;20173;-79
2022/01/28 08:26:32;;;;;;;0.20;0.20;;;6.20;99.90;;;;;;5057133;28;20185;-78
2022/01/28 08:28:58;;;;;;;0.07;0.07;;;6.20;99.90;;;;;;5061734;28;20255;-79
2022/01/28 08:31:23;;;;;;;0.17;0.17;;;6.30;99.90;;;;;;5058637;28;20706;-80
2022/01/28 08:33:49;;;;;;;0.10;0.10;;;6.30;99.90;;;;;;5057761;28;20549;-78
2022/01/28 08:36:14;;;;;;;0.73;0.73;;;6.20;99.90;;;;;;5068825;28;20217;-79
2022/01/28 08:38:44;;;;;;;0.33;0.33;;;6.30;99.90;;;;;;5068860;28;20196;-79
2022/01/28 08:41:12;;;;;;;1.70;0.40;;;6.40;99.90;;;;;;5069373;28;20197;-79
2022/01/28 08:43:39;;;;;;;0.10;0.10;;;6.50;99.90;;;;;;5058951;28;20197;-78
2022/01/28 08:46:05;;;;;;;0.20;0.20;;;6.50;99.90;;;;;;5048295;28;20427;-81
2022/01/28 08:48:30;;;;;;;0.10;0.10;;;6.60;99.90;;;;;;5040984;28;20194;-78
2022/01/28 08:50:57;;;;;;;0.10;0.10;;;6.70;99.90;;;;;;5046131;28;20262;-78
2022/01/28 08:53:22;;;;;;;0.40;0.40;;;6.60;99.90;;;;;;5056976;28;20196;-79
2022/01/28 08:55:48;;;;;;;0.10;0.10;;;6.60;99.90;;;;;;5056735;28;20181;-79
2022/01/28 08:58:15;;;;;;;0.10;0.10;;;6.50;99.90;;;;;;5063090;28;20224;-80
2022/01/28 09:00:43;;;;;;;0.70;0.60;;;6.50;99.90;;;;;;5059816;28;20311;-80
2022/01/28 09:03:09;;;;;;;0.33;0.33;;;6.80;99.90;;;;;;5063165;28;20225;-81
2022/01/28 09:05:34;;;;;;;0.10;0.10;;;6.90;99.90;;;;;;5059194;28;20227;-80
2022/01/28 09:08:06;;;;;;;0.10;0.10;;;6.80;99.90;;;;;;5061745;28;20197;-79
2022/01/28 09:10:31;;;;;;;0.10;0.10;;;7.20;99.90;;;;;;5058311;28;20216;-79
2022/01/28 09:15:29;;;;;;;0.10;0.10;;;7.40;99.90;;;;;;5057673;28;20200;-78
2022/01/28 09:17:54;;;;;;;0.10;0.10;;;7.50;99.90;;;;;;5059495;28;20337;-78
2022/01/28 09:20:20;;;;;;;0.10;0.10;;;7.50;99.90;;;;;;5055184;28;20251;-79
2022/01/28 09:22:46;;;;;;;3.23;0.30;;;7.40;99.90;;;;;;5058133;28;22021;-79
2022/01/28 09:25:11;;;;;;;0.43;0.43;;;7.30;99.90;;;;;;5052914;28;20259;-79
2022/01/28 09:27:37;;;;;;;0.10;0.10;;;7.10;99.90;;;;;;5048244;28;20194;-79
2022/01/28 09:30:04;;;;;;;3.70;0.30;;;7.10;99.90;;;;;;5055203;28;20221;-79
2022/01/28 09:32:30;;;;;;;0.20;0.20;;;6.90;99.90;;;;;;5056507;28;20203;-80
2022/01/28 09:34:55;;;;;;;0.20;0.20;;;6.80;99.90;;;;;;5057276;28;21015;-79
2022/01/28 09:37:21;;;;;;;0.50;0.50;;;6.60;99.90;;;;;;5057057;28;20183;-79
2022/01/28 09:39:48;;;;;;;0.63;0.50;;;6.80;99.90;;;;;;5055485;28;20346;-79
2022/01/28 09:42:16;;;;;;;0.33;0.33;;;6.60;99.90;;;;;;5055052;28;20193;-78
2022/01/28 09:44:43;;;;;;;0.13;0.13;;;6.40;99.90;;;;;;5058950;28;20181;-79
2022/01/28 09:47:11;;;;;;;0.10;0.10;;;6.50;99.90;;;;;;5057653;28;20177;-79
2022/01/28 09:49:41;;;;;;;0.10;0.10;;;6.60;99.90;;;;;;5058093;28;20291;-78
2022/01/28 09:52:08;;;;;;;0.37;0.30;;;6.60;99.90;;;;;;5057736;28;20269;-79
2022/01/28 09:54:34;;;;;;;0.30;0.30;;;6.50;99.90;;;;;;5055205;28;20191;-79
2022/01/28 09:57:04;;;;;;;0.10;0.10;;;6.60;99.90;;;;;;5057435;28;20650;-79
2022/01/28 09:59:30;;;;;;;0.10;0.10;;;6.70;99.90;;;;;;5056796;28;20300;-78
2022/01/28 10:01:56;;;;;;;0.47;0.47;;;6.70;99.90;;;;;;5057415;28;20195;-77
2022/01/28 10:04:22;;;;;;;0.10;0.10;;;6.80;99.90;;;;;;5059348;28;20192;-77
2022/01/28 10:06:49;;;;;;;0.30;0.30;;;7.00;99.90;;;;;;5057235;28;20266;-79
2022/01/28 10:09:18;;;;;;;0.43;0.43;;;7.10;99.90;;;;;;5052367;28;20231;-83
2022/01/28 10:11:47;;;;;;;0.73;0.73;;;7.20;99.90;;;;;;5058639;28;20216;-79
2022/01/28 10:14:18;;;;;;;1.17;1.07;;;7.20;99.90;;;;;;5063534;28;20188;-83
2022/01/28 10:16:56;;;;;;;3.17;1.87;;;7.30;99.90;;;;;;5064247;28;20176;-80
2022/01/28 10:19:27;;;;;;;4.93;2.37;;;6.90;99.90;;;;;;5064131;28;20173;-79
2022/01/28 10:21:53;;;;;;;1.90;1.10;;;6.90;99.90;;;;;;5064283;28;20225;-78
2022/01/28 10:24:27;;;;;;;1.13;1.07;;;6.90;99.90;;;;;;5059543;28;20208;-78
2022/01/28 10:26:53;;;;;;;0.20;0.20;;;7.00;99.90;;;;;;5063482;28;20180;-78
2022/01/28 10:29:22;;;;;;;0.30;0.30;;;7.10;99.90;;;;;;5060595;28;20184;-78
2022/01/28 10:31:56;;;;;;;0.10;0.10;;;7.20;99.90;;;;;;5059034;28;20201;-80
2022/01/28 10:34:30;;;;;;;3.57;1.77;;;7.30;99.90;;;;;;5057483;28;21794;-79
2022/01/28 10:37:15;;;;;;;1.73;1.43;;;7.30;99.90;;;;;;5058277;28;20176;-78
2022/01/28 10:39:48;;;;;;;0.30;0.30;;;7.40;99.90;;;;;;5057410;28;20749;-78
2022/01/28 10:42:41;;;;;;;0.40;0.40;;;7.50;99.90;;;;;;5059301;28;20190;-78
2022/01/28 10:45:11;;;;;;;2.93;0.33;;;7.70;99.90;;;;;;5059980;28;20189;-79
2022/01/28 10:47:39;;;;;;;0.10;0.10;;;7.90;99.90;;;;;;5060166;28;20261;-79
2022/01/28 10:50:31;;;;;;;0.10;0.10;;;8.00;99.90;;;;;;5057446;28;20211;-79
2022/01/28 10:53:14;;;;;;;0.10;0.10;;;8.10;99.90;;;;;;5052909;28;20177;-78
2022/01/28 10:55:44;;;;;;;0.60;0.23;;;8.70;99.90;;;;;;5058997;28;20177;-79
2022/01/28 10:58:19;;;;;;;0.10;0.10;;;9.20;99.90;;;;;;5063555;28;20190;-78
2022/01/28 11:00:50;;;;;;;0.30;0.30;;;9.00;99.90;;;;;;5061318;28;20204;-79
2022/01/28 11:03:17;;;;;;;0.10;0.10;;;8.80;99.90;;;;;;5068806;28;20216;-78
2022/01/28 11:05:45;;;;;;;1.00;1.00;;;8.80;99.90;;;;;;5060819;28;20231;-80
2022/01/28 11:08:13;;;;;;;0.40;0.40;;;8.50;99.90;;;;;;5061584;28;20184;-80
2022/01/28 11:10:41;;;;;;;0.47;0.47;;;8.50;99.90;;;;;;5059708;28;20280;-80
2022/01/28 11:13:07;;;;;;;0.20;0.20;;;8.40;99.90;;;;;;5062409;28;20196;-79
2022/01/28 11:15:34;;;;;;;0.10;0.10;;;8.20;99.90;;;;;;5063477;28;20193;-81
2022/01/28 11:18:03;;;;;;;0.10;0.10;;;7.90;99.90;;;;;;5064775;28;20176;-79
2022/01/28 11:20:36;;;;;;;0.10;0.10;;;8.10;99.90;;;;;;5062041;28;21143;-81
2022/01/28 11:23:08;;;;;;;0.17;0.17;;;8.40;99.90;;;;;;5070939;28;20174;-79
2022/01/28 11:25:44;;;;;;;0.30;0.30;;;8.70;99.90;;;;;;5064537;28;20312;-78
2022/01/28 11:28:13;;;;;;;0.10;0.10;;;8.60;99.90;;;;;;5064195;28;20261;-79
2022/01/28 11:30:50;;;;;;;0.10;0.10;;;8.60;99.90;;;;;;5063470;28;20697;-79
2022/01/28 11:33:19;;;;;;;0.10;0.10;;;8.50;99.90;;;;;;5065164;28;20212;-80
2022/01/28 11:35:49;;;;;;;0.10;0.10;;;8.50;99.90;;;;;;5062680;28;20189;-80
2022/01/28 11:38:27;;;;;;;0.03;0.03;;;8.80;99.90;;;;;;5062331;28;20620;-80
2022/01/28 11:41:05;;;;;;;0.10;0.10;;;9.10;99.90;;;;;;5062534;28;20314;-78
2022/01/28 11:43:32;;;;;;;0.20;0.20;;;9.40;99.90;;;;;;5063882;28;20603;-79
2022/01/28 11:46:08;;;;;;;0.30;0.30;;;9.80;99.90;;;;;;5065720;28;20231;-80
2022/01/28 11:48:53;;;;;;;0.10;0.10;;;9.70;99.90;;;;;;5065923;28;20192;-80
2022/01/28 11:51:20;;;;;;;0.10;0.10;;;9.70;99.90;;;;;;5062977;28;20229;-80
2022/01/28 11:53:57;;;;;;;0.10;0.10;;;9.50;99.90;;;;;;5060058;28;20183;-80
2022/01/28 11:56:26;;;;;;;0.10;0.10;;;9.20;99.90;;;;;;5060467;28;20181;-80
2022/01/28 11:58:52;;;;;;;0.07;0.07;;;8.90;99.90;;;;;;5059993;28;20532;-79
2022/01/28 12:01:25;;;;;;;0.10;0.10;;;8.50;99.90;;;;;;5063314;28;20266;-79
2022/01/28 12:04:26;;;;;;;0.10;0.10;;;8.30;99.90;;;;;;5062131;28;20201;-80
2022/01/28 12:07:00;;;;;;;0.13;0.13;;;8.40;99.90;;;;;;5060632;28;20561;-80
2022/01/28 12:09:26;;;;;;;4.33;0.73;;;8.50;99.90;;;;;;5062911;28;20183;-79
2022/01/28 12:11:53;;;;;;;0.90;0.90;;;8.40;99.90;;;;;;5059358;28;20181;-80
2022/01/28 12:14:39;;;;;;;0.57;0.57;;;8.80;99.90;;;;;;5065019;28;20650;-80
2022/01/28 12:17:30;;;;;;;0.93;0.77;;;9.20;99.90;;;;;;5062601;28;20234;-80
2022/01/28 12:20:15;;;;;;;0.10;0.10;;;9.30;99.90;;;;;;5063543;28;22031;-79
2022/01/28 12:22:59;;;;;;;1.43;0.80;;;9.70;99.90;;;;;;5068045;28;20180;-80
2022/01/28 12:25:37;;;;;;;0.20;0.20;;;9.20;99.90;;;;;;5064759;28;20610;-80
2022/01/28 12:28:18;;;;;;;0.13;0.13;;;9.00;99.90;;;;;;5064401;28;20259;-79
2022/01/28 12:30:48;;;;;;;1.23;1.10;;;8.80;99.90;;;;;;5062908;28;20239;-80
2022/01/28 12:33:15;;;;;;;0.10;0.10;;;8.90;99.90;;;;;;5077840;28;20681;-80
2022/01/28 12:35:42;;;;;;;0.10;0.10;;;8.80;99.90;;;;;;5062065;28;20202;-80
2022/01/28 12:38:11;;;;;;;0.10;0.10;;;8.80;99.90;;;;;;5059353;28;20177;-78
2022/01/28 12:40:39;;;;;;;2.20;0.30;;;8.90;99.90;;;;;;5060361;28;20201;-78
2022/01/28 12:43:07;;;;;;;0.10;0.10;;;9.00;99.90;;;;;;5060572;28;20236;-79
2022/01/28 12:45:33;;;;;;;0.30;0.30;;;9.40;99.90;;;;;;5061725;28;20190;-80
2022/01/28 12:47:59;;;;;;;0.57;0.57;;;9.40;99.90;;;;;;5059338;28;20198;-80
2022/01/28 12:50:25;;;;;;;0.43;0.43;;;9.10;99.90;;;;;;5060310;28;20305;-80
2022/01/28 12:52:51;;;;;;;0.10;0.10;;;9.20;99.90;;;;;;5063914;28;20182;-79
2022/01/28 12:55:17;;;;;;;0.30;0.30;;;9.20;99.90;;;;;;5064931;28;20265;-79
2022/01/28 12:57:45;;;;;;;0.10;0.10;;;9.20;99.90;;;;;;5057272;28;20594;-79
2022/01/28 13:00:11;;;;;;;2.10;0.40;;;9.20;99.90;;;;;;5065322;28;20216;-79
2022/01/28 13:02:40;;;;;;;0.20;0.20;;;9.10;99.90;;;;;;5062703;28;20226;-78
2022/01/28 13:10:26;;;;;;;0.10;0.10;;;9.20;99.90;;;;;;5060850;28;20233;-80
2022/01/28 13:13:00;;;;;;;0.10;0.10;;;9.10;99.90;;;;;;5060750;28;20173;-79
2022/01/28 13:15:26;;;;;;;0.10;0.10;;;9.10;99.90;;;;;;5062156;28;20566;-80
2022/01/28 13:17:55;;;;;;;7.43;1.00;;;9.20;99.90;;;;;;5064813;28;20186;-79
2022/01/28 13:20:21;;;;;;;0.00;0.00;;;9.10;99.90;;;;;;5061791;28;20342;-80
2022/01/28 13:22:52;;;;;;;0.10;0.10;;;9.20;99.90;;;;;;5064861;28;20186;-79
2022/01/28 13:25:21;;;;;;;0.00;0.00;;;9.20;99.90;;;;;;5065302;28;20690;-79
2022/01/28 13:27:52;;;;;;;0.23;0.23;;;9.20;99.90;;;;;;5060105;28;20282;-79
2022/01/28 13:30:19;;;;;;;2.10;0.20;;;9.30;99.90;;;;;;5065700;28;20219;-82
2022/01/28 13:32:49;;;;;;;0.67;0.67;;;9.30;99.90;;;;;;5067621;28;20207;-80
2022/01/28 13:35:19;;;;;;;0.10;0.10;;;9.50;99.90;;;;;;5064123;28;20178;-80
2022/01/28 13:37:51;;;;;;;0.13;0.13;;;9.70;99.90;;;;;;5064791;28;20679;-79
2022/01/28 13:40:23;;;;;;;0.33;0.20;;;9.90;99.90;;;;;;5065460;28;20219;-80
2022/01/28 13:43:01;;;;;;;6.60;0.53;;;9.70;99.90;;;;;;5065903;28;20551;-81
2022/01/28 13:45:44;;;;;;;0.13;0.13;;;9.60;99.90;;;;;;5062237;28;20209;-79
2022/01/28 13:48:15;;;;;;;0.60;0.60;;;9.80;99.90;;;;;;5065753;28;20190;-80
2022/01/28 13:50:43;;;;;;;0.30;0.30;;;9.90;99.90;;;;;;5061931;28;20300;-79
2022/01/28 13:55:59;;;;;;;0.30;0.30;;;9.50;99.90;;;;;;5060748;28;20195;-79
2022/01/28 13:58:26;;;;;;;1.13;0.97;;;9.20;99.90;;;;;;5061855;28;21004;-80
2022/01/28 14:00:52;;;;;;;0.10;0.10;;;9.10;99.90;;;;;;5060689;28;20210;-80
2022/01/28 14:03:22;;;;;;;0.10;0.10;;;9.00;99.90;;;;;;5059714;28;20734;-80
2022/01/28 14:06:00;;;;;;;0.40;0.40;;;8.90;99.90;;;;;;5061746;28;20193;-79
2022/01/28 14:08:48;;;;;;;0.20;0.20;;;8.70;99.90;;;;;;5059641;28;20201;-79
2022/01/28 14:11:39;;;;;;;0.40;0.40;;;8.60;99.90;;;;;;5061055;28;20213;-79
2022/01/28 14:14:26;;;;;;;0.00;0.00;;;8.50;99.90;;;;;;5059704;28;20174;-79
2022/01/28 14:16:58;;;;;;;0.10;0.10;;;8.50;99.90;;;;;;5060535;28;20177;-79
2022/01/28 14:19:26;;;;;;;0.00;0.00;;;8.60;99.90;;;;;;5064142;28;20189;-80
2022/01/28 14:21:53;;;;;;;0.57;0.20;;;8.50;99.90;;;;;;5058387;28;20239;-80
2022/01/28 14:24:33;;;;;;;0.10;0.10;;;8.50;99.90;;;;;;5057190;28;20729;-80
2022/01/28 14:32:04;;;;;;;0.47;0.47;;;8.50;99.90;;;;;;5059558;28;20549;-83
2022/01/28 14:34:30;;;;;;;0.47;0.30;;;8.50;99.90;;;;;;5057500;28;20195;-85
2022/01/28 14:36:56;;;;;;;0.37;0.37;;;8.50;99.90;;;;;;5056790;28;21742;-84
2022/01/28 14:39:21;;;;;;;0.20;0.20;;;8.30;99.90;;;;;;5059236;28;20208;-84